Time;durP1;ratioP1;P1;durP2;ratioP2;P2;SDS_P1;SDS_P2;PMS_P1;PMS_P2;Temp;Humidity;BMP_temperature;BMP_pressure;BME280_temperature;BME280_humidity;BME280_pressure;Samples;Min_cycle;Max_cycle;Signal;HPM_P1;HPM_P2
2022/06/26 05:00:16;;;;;;;3.00;2.70;;;21.10;97.20;;;;;;1720577;28;20200;-68
2022/06/26 05:01:07;;;;;;;3.50;3.20;;;21.10;97.20;;;;;;1720691;28;20340;-68
2022/06/26 05:01:59;;;;;;;3.50;3.20;;;21.10;97.20;;;;;;1720629;28;20208;-68
2022/06/26 05:02:49;;;;;;;4.65;3.10;;;21.10;97.20;;;;;;1720813;28;20230;-68
2022/06/26 05:03:41;;;;;;;3.23;2.93;;;21.10;97.20;;;;;;1720626;28;20288;-68
2022/06/26 05:04:32;;;;;;;2.97;2.78;;;21.10;97.20;;;;;;1720757;28;20212;-68
2022/06/26 05:05:24;;;;;;;3.77;3.20;;;21.10;97.20;;;;;;1720663;28;20204;-68
2022/06/26 05:06:15;;;;;;;3.28;2.95;;;21.10;97.20;;;;;;1725209;28;20950;-68
2022/06/26 05:07:07;;;;;;;3.83;3.47;;;21.10;97.20;;;;;;1727131;28;20621;-68
2022/06/26 05:07:57;;;;;;;4.63;4.18;;;21.10;97.20;;;;;;1727106;28;20749;-68
2022/06/26 05:08:49;;;;;;;4.33;3.60;;;21.10;97.20;;;;;;1727421;28;20619;-68
2022/06/26 05:09:40;;;;;;;4.93;4.13;;;21.10;97.20;;;;;;1727434;28;20204;-68
2022/06/26 05:10:32;;;;;;;4.07;3.70;;;21.10;97.20;;;;;;1727316;28;20307;-68
2022/06/26 05:11:22;;;;;;;4.75;3.85;;;21.10;97.20;;;;;;1727129;28;20204;-68
2022/06/26 05:12:14;;;;;;;3.80;3.30;;;21.20;97.20;;;;;;1727406;28;20295;-68
2022/06/26 05:13:05;;;;;;;3.70;3.40;;;21.10;97.20;;;;;;1727311;28;20227;-68
2022/06/26 05:13:57;;;;;;;4.03;3.27;;;21.10;97.20;;;;;;1727438;28;20302;-68
2022/06/26 05:14:48;;;;;;;3.50;3.20;;;21.10;97.20;;;;;;1727497;28;20726;-68
2022/06/26 05:15:41;;;;;;;3.23;2.93;;;21.10;97.20;;;;;;1727435;28;20283;-68
2022/06/26 05:16:31;;;;;;;3.65;3.35;;;21.10;97.20;;;;;;1727227;28;20204;-68
2022/06/26 05:17:23;;;;;;;7.37;3.60;;;21.10;97.20;;;;;;1727281;28;20204;-68
2022/06/26 05:18:14;;;;;;;2.90;2.70;;;21.10;97.20;;;;;;1727346;28;20826;-68
2022/06/26 05:19:06;;;;;;;2.90;2.70;;;21.10;97.20;;;;;;1727331;28;20200;-68
2022/06/26 05:19:57;;;;;;;3.90;3.30;;;21.10;97.20;;;;;;1727460;28;20558;-68
2022/06/26 05:20:49;;;;;;;4.93;3.23;;;21.10;97.20;;;;;;1726666;28;20623;-68
2022/06/26 05:21:40;;;;;;;3.70;3.30;;;21.10;97.20;;;;;;1727517;28;20211;-68
2022/06/26 05:22:31;;;;;;;3.13;2.83;;;21.10;97.20;;;;;;1727383;28;20208;-68
2022/06/26 05:23:22;;;;;;;3.70;3.05;;;21.10;97.20;;;;;;1727330;28;20208;-68
2022/06/26 05:24:14;;;;;;;3.53;3.22;;;21.10;97.20;;;;;;1727344;28;20196;-68
2022/06/26 05:25:06;;;;;;;3.88;3.47;;;21.10;97.20;;;;;;1727295;28;20204;-68
2022/06/26 05:25:57;;;;;;;3.47;3.17;;;21.20;97.20;;;;;;1727362;28;20605;-68
2022/06/26 05:26:49;;;;;;;3.65;3.13;;;21.10;97.20;;;;;;1727193;28;20208;-68
2022/06/26 05:27:40;;;;;;;3.60;3.30;;;21.10;97.20;;;;;;1727396;28;20662;-68
2022/06/26 05:28:31;;;;;;;3.50;3.20;;;21.10;97.20;;;;;;1727362;28;20200;-68
2022/06/26 05:29:23;;;;;;;6.50;3.40;;;21.10;97.20;;;;;;1727389;28;20200;-68
2022/06/26 05:30:14;;;;;;;3.50;3.20;;;21.10;97.20;;;;;;1727202;28;20204;-68
2022/06/26 05:31:07;;;;;;;3.03;2.80;;;21.10;97.20;;;;;;1727303;28;20280;-68
2022/06/26 05:31:57;;;;;;;3.53;3.22;;;21.10;97.20;;;;;;1727358;28;20562;-68
2022/06/26 05:32:49;;;;;;;4.00;3.37;;;21.10;97.20;;;;;;1727088;28;20283;-68
2022/06/26 05:33:40;;;;;;;4.00;3.03;;;21.10;97.20;;;;;;1727375;28;20227;-69
2022/06/26 05:34:32;;;;;;;4.77;3.40;;;21.10;97.20;;;;;;1727306;28;20211;-69
2022/06/26 05:35:23;;;;;;;3.58;3.28;;;21.10;97.20;;;;;;1727264;28;20447;-69
2022/06/26 05:36:15;;;;;;;3.17;2.70;;;21.10;97.20;;;;;;1727280;28;20759;-68
2022/06/26 05:37:05;;;;;;;2.97;2.78;;;21.20;97.20;;;;;;1726918;28;20486;-68
2022/06/26 05:37:58;;;;;;;4.13;2.53;;;21.20;97.20;;;;;;1727249;28;20292;-72
2022/06/26 05:38:48;;;;;;;3.45;2.83;;;21.20;97.20;;;;;;1727377;28;20578;-70
2022/06/26 05:39:40;;;;;;;4.03;3.00;;;21.20;97.20;;;;;;1727400;28;20638;-69
2022/06/26 05:40:31;;;;;;;2.72;2.53;;;21.20;97.20;;;;;;1727255;28;20231;-69
2022/06/26 05:41:22;;;;;;;3.50;2.80;;;21.20;97.20;;;;;;1727262;28;20291;-69
2022/06/26 05:42:13;;;;;;;3.38;2.97;;;21.20;97.20;;;;;;1727205;28;20208;-69
2022/06/26 05:43:05;;;;;;;2.90;2.70;;;21.20;97.20;;;;;;1727211;28;20197;-69
2022/06/26 05:43:57;;;;;;;3.50;2.70;;;21.20;97.20;;;;;;1727298;28;20196;-69
2022/06/26 05:44:49;;;;;;;5.13;3.10;;;21.20;97.20;;;;;;1727339;28;20239;-69
2022/06/26 05:45:40;;;;;;;3.10;2.80;;;21.20;97.20;;;;;;1726598;28;20269;-69
2022/06/26 05:46:33;;;;;;;2.67;2.47;;;21.10;97.20;;;;;;1723814;28;20201;-69
2022/06/26 05:47:24;;;;;;;3.05;2.55;;;21.10;97.20;;;;;;1726887;28;20205;-69
2022/06/26 05:48:15;;;;;;;3.88;2.95;;;21.10;97.20;;;;;;1727084;28;20212;-69
2022/06/26 05:49:07;;;;;;;3.10;2.70;;;21.10;97.20;;;;;;1727070;28;20203;-70
2022/06/26 05:49:58;;;;;;;2.70;2.50;;;21.10;97.20;;;;;;1727212;28;20439;-70
2022/06/26 05:50:49;;;;;;;2.67;2.47;;;21.10;97.20;;;;;;1727165;28;20224;-69
2022/06/26 05:51:40;;;;;;;3.00;2.70;;;21.10;97.20;;;;;;1727343;28;20209;-69
2022/06/26 05:52:32;;;;;;;3.00;2.80;;;21.10;97.20;;;;;;1727274;28;20295;-69
2022/06/26 05:53:22;;;;;;;3.50;2.67;;;21.00;97.20;;;;;;1727219;28;20204;-69
2022/06/26 05:54:14;;;;;;;3.07;2.87;;;21.00;97.20;;;;;;1727219;28;20235;-69
2022/06/26 05:55:06;;;;;;;2.90;2.70;;;21.00;97.20;;;;;;1727236;28;20205;-69
2022/06/26 05:55:57;;;;;;;2.95;2.75;;;20.90;97.20;;;;;;1727239;28;20220;-69
2022/06/26 05:56:48;;;;;;;2.72;2.60;;;20.90;97.20;;;;;;1726885;28;20682;-69
2022/06/26 05:57:40;;;;;;;2.93;2.73;;;20.90;97.20;;;;;;1727195;28;20751;-69
2022/06/26 05:58:31;;;;;;;2.90;2.70;;;20.90;97.20;;;;;;1727163;28;20215;-68
2022/06/26 05:59:22;;;;;;;3.37;2.60;;;21.00;97.20;;;;;;1727184;28;20207;-69
2022/06/26 06:00:14;;;;;;;2.85;2.58;;;21.00;97.20;;;;;;1726823;28;20812;-69
2022/06/26 06:01:06;;;;;;;2.83;2.63;;;21.00;97.20;;;;;;1727205;28;20682;-69
2022/06/26 06:01:58;;;;;;;3.30;3.00;;;21.00;97.20;;;;;;1727262;28;20243;-69
2022/06/26 06:02:49;;;;;;;3.30;2.50;;;21.00;97.20;;;;;;1727243;28;20297;-69
2022/06/26 06:03:40;;;;;;;3.20;2.60;;;21.00;97.20;;;;;;1727290;28;20215;-68
2022/06/26 06:04:33;;;;;;;2.77;2.43;;;21.00;97.20;;;;;;1727261;28;20295;-68
2022/06/26 06:05:25;;;;;;;2.40;2.30;;;21.00;97.20;;;;;;1727256;28;20770;-69
2022/06/26 06:06:17;;;;;;;3.25;2.95;;;21.00;97.20;;;;;;1727221;28;20203;-69
2022/06/26 06:07:08;;;;;;;2.95;2.70;;;21.00;97.20;;;;;;1726943;28;20338;-69
2022/06/26 06:08:00;;;;;;;4.00;2.63;;;21.00;97.20;;;;;;1727163;28;20280;-68
2022/06/26 06:08:51;;;;;;;2.67;2.47;;;21.00;97.20;;;;;;1727222;28;20211;-69
2022/06/26 06:09:43;;;;;;;2.83;2.63;;;21.10;97.20;;;;;;1727233;28;20228;-68
2022/06/26 06:10:34;;;;;;;2.75;2.55;;;21.10;97.20;;;;;;1727136;28;20221;-69
2022/06/26 06:11:25;;;;;;;2.50;2.30;;;21.10;97.20;;;;;;1727175;28;20200;-69
2022/06/26 06:12:16;;;;;;;2.80;2.60;;;21.10;97.20;;;;;;1727116;28;20443;-69
2022/06/26 06:13:08;;;;;;;2.60;2.40;;;21.10;97.20;;;;;;1727123;28;20291;-69
2022/06/26 06:13:59;;;;;;;2.50;2.30;;;21.10;97.20;;;;;;1727170;28;20439;-69
2022/06/26 06:14:51;;;;;;;2.40;2.00;;;21.10;97.20;;;;;;1727191;28;20656;-69
2022/06/26 06:15:42;;;;;;;2.67;2.47;;;21.10;97.20;;;;;;1727204;28;20461;-69
2022/06/26 06:16:34;;;;;;;2.40;2.20;;;21.10;97.20;;;;;;1726955;28;20283;-69
2022/06/26 06:17:40;;;;;;;2.22;2.13;;;21.20;97.20;;;;;;1726842;28;20483;-69
2022/06/26 06:18:32;;;;;;;3.00;2.40;;;21.20;97.20;;;;;;1726945;28;20197;-69
2022/06/26 06:19:23;;;;;;;2.50;2.30;;;21.20;97.20;;;;;;1727166;28;20648;-69
2022/06/26 06:20:17;;;;;;;3.03;2.20;;;21.20;97.20;;;;;;1727102;28;20687;-69
2022/06/26 06:21:08;;;;;;;2.72;2.53;;;21.30;97.20;;;;;;1727132;28;20223;-69
2022/06/26 06:22:00;;;;;;;2.23;2.13;;;21.30;97.20;;;;;;1727196;28;20228;-69
2022/06/26 06:22:54;;;;;;;2.95;2.22;;;21.30;97.20;;;;;;1727162;28;20291;-69
2022/06/26 06:23:46;;;;;;;2.53;2.30;;;21.30;97.20;;;;;;1728291;28;20207;-69
2022/06/26 06:24:37;;;;;;;2.38;1.90;;;21.40;97.20;;;;;;1728467;28;20209;-69
2022/06/26 06:25:28;;;;;;;2.43;2.23;;;21.40;97.20;;;;;;1728383;28;20731;-69
2022/06/26 06:26:19;;;;;;;3.33;3.00;;;21.40;97.20;;;;;;1728429;28;20557;-69
2022/06/26 06:27:11;;;;;;;2.93;2.63;;;21.50;97.20;;;;;;1728032;28;20246;-69
2022/06/26 06:28:02;;;;;;;2.00;1.90;;;21.50;97.20;;;;;;1728258;28;20675;-69
2022/06/26 06:28:54;;;;;;;2.25;2.15;;;21.50;97.20;;;;;;1728290;28;20201;-69
2022/06/26 06:29:45;;;;;;;2.45;2.25;;;21.60;97.20;;;;;;1728307;28;20208;-69
2022/06/26 06:30:37;;;;;;;3.17;2.60;;;21.60;97.20;;;;;;1728340;28;20302;-69
2022/06/26 06:31:27;;;;;;;2.75;2.50;;;21.60;97.20;;;;;;1728337;28;20208;-69
2022/06/26 06:32:19;;;;;;;3.03;2.83;;;21.60;97.20;;;;;;1728389;28;20284;-69
2022/06/26 06:33:11;;;;;;;2.60;2.40;;;21.60;97.20;;;;;;1728300;28;20196;-68
2022/06/26 06:34:03;;;;;;;2.60;2.40;;;21.60;97.20;;;;;;1728106;28;20204;-69
2022/06/26 06:34:54;;;;;;;2.70;2.50;;;21.60;97.20;;;;;;1728371;28;20204;-69
2022/06/26 06:35:45;;;;;;;2.80;2.60;;;21.70;97.20;;;;;;1728287;28;20291;-69
2022/06/26 06:36:36;;;;;;;2.35;2.25;;;21.70;97.20;;;;;;1727992;28;20211;-68
2022/06/26 06:37:28;;;;;;;2.23;2.03;;;21.70;97.20;;;;;;1728159;28;20220;-68
2022/06/26 06:38:19;;;;;;;2.50;2.30;;;21.70;97.20;;;;;;1728248;28;20200;-68
2022/06/26 06:39:10;;;;;;;2.20;2.00;;;21.70;97.20;;;;;;1728299;28;20232;-69
2022/06/26 06:40:01;;;;;;;2.97;2.25;;;21.70;97.20;;;;;;1728292;28;20224;-69
2022/06/26 06:40:53;;;;;;;2.60;2.40;;;21.80;97.20;;;;;;1728206;28;20231;-68
2022/06/26 06:41:44;;;;;;;2.30;2.10;;;21.80;97.20;;;;;;1728186;28;20205;-68
2022/06/26 06:42:35;;;;;;;2.40;2.20;;;21.80;97.20;;;;;;1728402;28;20224;-69
2022/06/26 06:43:26;;;;;;;2.70;2.30;;;21.80;97.20;;;;;;1728196;28;20270;-69
2022/06/26 06:44:18;;;;;;;2.63;2.43;;;21.80;97.20;;;;;;1728244;28;20197;-69
2022/06/26 06:45:10;;;;;;;3.50;2.47;;;21.90;97.20;;;;;;1728233;28;20196;-68
2022/06/26 06:46:02;;;;;;;2.47;2.20;;;21.90;97.20;;;;;;1728155;28;20655;-68
2022/06/26 06:46:53;;;;;;;2.67;2.47;;;21.90;97.20;;;;;;1727999;28;20200;-68
2022/06/26 06:47:44;;;;;;;2.43;2.33;;;21.90;97.20;;;;;;1728205;28;20195;-68
2022/06/26 06:48:36;;;;;;;2.45;2.25;;;22.00;97.20;;;;;;1728287;28;20583;-68
2022/06/26 06:49:28;;;;;;;2.50;2.30;;;22.00;97.20;;;;;;1728208;28;20287;-69
2022/06/26 06:50:19;;;;;;;2.65;2.45;;;22.00;97.20;;;;;;1728132;28;20212;-69
2022/06/26 06:51:11;;;;;;;2.23;2.03;;;22.00;97.20;;;;;;1727829;28;20284;-69
2022/06/26 06:52:02;;;;;;;3.50;1.83;;;22.10;97.20;;;;;;1728192;28;20200;-69
2022/06/26 06:52:53;;;;;;;2.90;2.40;;;22.10;97.20;;;;;;1728177;28;20594;-69
2022/06/26 06:53:45;;;;;;;3.42;1.80;;;22.10;97.20;;;;;;1728203;28;20573;-68
2022/06/26 06:54:37;;;;;;;2.50;1.90;;;22.10;97.20;;;;;;1728305;28;20683;-68
2022/06/26 06:55:28;;;;;;;2.05;1.85;;;22.10;97.20;;;;;;1728238;28;20683;-69
2022/06/26 06:56:20;;;;;;;2.23;2.03;;;22.20;97.20;;;;;;1728130;28;20767;-69
2022/06/26 06:57:11;;;;;;;2.00;1.90;;;22.20;97.20;;;;;;1727917;28;20832;-69
2022/06/26 06:58:02;;;;;;;2.27;2.00;;;22.20;97.20;;;;;;1728063;28;20696;-68
2022/06/26 06:58:53;;;;;;;1.70;1.60;;;22.20;97.20;;;;;;1728154;28;20204;-69
2022/06/26 06:59:45;;;;;;;2.70;2.00;;;22.20;97.20;;;;;;1728198;28;20279;-69
2022/06/26 07:00:36;;;;;;;2.08;1.98;;;22.20;97.20;;;;;;1728038;28;20240;-69
2022/06/26 07:01:28;;;;;;;2.67;2.45;;;22.20;97.20;;;;;;1728136;28;20205;-69
2022/06/26 07:02:18;;;;;;;2.00;1.85;;;22.30;97.20;;;;;;1728127;28;20695;-69
2022/06/26 07:03:10;;;;;;;2.40;2.20;;;22.30;97.20;;;;;;1728150;28;20628;-70
2022/06/26 07:04:02;;;;;;;2.33;2.13;;;22.30;97.20;;;;;;1728123;28;20204;-69
2022/06/26 07:04:54;;;;;;;2.20;2.00;;;22.30;97.20;;;;;;1728157;28;20232;-69
2022/06/26 07:05:45;;;;;;;1.70;1.60;;;22.40;97.20;;;;;;1728058;28;20205;-69
2022/06/26 07:06:36;;;;;;;2.00;1.90;;;22.40;97.20;;;;;;1727843;28;20287;-69
2022/06/26 07:07:27;;;;;;;3.05;1.90;;;22.40;97.20;;;;;;1728131;28;20545;-69
2022/06/26 07:08:19;;;;;;;2.67;1.83;;;22.40;97.20;;;;;;1727819;28;20587;-69
2022/06/26 07:09:11;;;;;;;2.13;1.92;;;22.40;97.20;;;;;;1728084;28;20209;-69
2022/06/26 07:10:03;;;;;;;1.70;1.60;;;22.50;97.20;;;;;;1728063;28;20280;-69
2022/06/26 07:10:54;;;;;;;1.60;1.50;;;22.50;97.20;;;;;;1728074;28;20220;-69
2022/06/26 07:11:46;;;;;;;1.60;1.50;;;22.50;97.20;;;;;;1728084;28;20290;-69
2022/06/26 07:12:37;;;;;;;1.40;1.30;;;22.50;97.20;;;;;;1728087;28;20208;-69
2022/06/26 07:13:29;;;;;;;2.20;2.00;;;22.60;97.20;;;;;;1727993;28;20235;-69
2022/06/26 07:14:19;;;;;;;1.60;1.50;;;22.60;97.20;;;;;;1728094;28;20204;-69
2022/06/26 07:15:11;;;;;;;1.60;1.50;;;22.60;97.20;;;;;;1728066;28;20201;-69
2022/06/26 07:16:03;;;;;;;2.10;1.60;;;22.60;97.20;;;;;;1727926;28;20200;-69
2022/06/26 07:16:55;;;;;;;3.40;1.67;;;22.60;97.20;;;;;;1727765;28;20203;-69
2022/06/26 07:17:45;;;;;;;1.95;1.67;;;22.60;97.20;;;;;;1727862;28;20231;-69
2022/06/26 07:18:37;;;;;;;1.70;1.60;;;22.70;97.20;;;;;;1728108;28;20287;-69
2022/06/26 07:19:29;;;;;;;1.98;1.60;;;22.70;97.20;;;;;;1726500;28;20212;-69
2022/06/26 07:20:21;;;;;;;2.28;1.42;;;22.70;97.20;;;;;;1725252;28;20243;-69
2022/06/26 07:21:13;;;;;;;1.60;1.50;;;22.70;97.20;;;;;;1727920;28;20204;-69
2022/06/26 07:22:05;;;;;;;1.48;1.38;;;22.70;97.20;;;;;;1727964;28;20196;-69
2022/06/26 07:22:56;;;;;;;1.50;1.40;;;22.80;97.20;;;;;;1728096;28;20243;-69
2022/06/26 07:23:47;;;;;;;2.30;1.80;;;22.80;97.20;;;;;;1727932;28;20203;-68
2022/06/26 07:24:39;;;;;;;2.00;1.80;;;22.80;97.20;;;;;;1728044;28;20204;-69
2022/06/26 07:25:30;;;;;;;2.58;1.80;;;22.80;97.20;;;;;;1727925;28;20202;-68
2022/06/26 07:26:22;;;;;;;4.13;1.70;;;22.90;97.20;;;;;;1727514;28;20287;-68
2022/06/26 07:27:14;;;;;;;2.47;1.65;;;22.90;97.20;;;;;;1725013;28;20283;-68
2022/06/26 07:28:04;;;;;;;2.97;1.50;;;22.90;97.20;;;;;;1727396;28;20201;-69
2022/06/26 07:28:56;;;;;;;2.10;1.50;;;22.90;97.20;;;;;;1727596;28;20287;-69
2022/06/26 07:29:47;;;;;;;2.38;1.60;;;22.90;97.20;;;;;;1727819;28;20791;-69
2022/06/26 07:30:39;;;;;;;2.30;1.90;;;23.00;97.20;;;;;;1727627;28;20605;-69
2022/06/26 07:31:30;;;;;;;3.72;1.70;;;23.00;97.20;;;;;;1727936;28;20447;-69
2022/06/26 07:32:22;;;;;;;1.57;1.47;;;23.00;97.20;;;;;;1727952;28;20227;-69
2022/06/26 07:34:19;;;;;;;1.98;1.88;;;23.00;97.20;;;;;;1727389;28;20303;-69
2022/06/26 07:35:11;;;;;;;1.65;1.52;;;23.00;97.20;;;;;;1727906;28;20660;-69
2022/06/26 07:36:03;;;;;;;1.90;1.80;;;23.10;97.20;;;;;;1727821;28;20567;-69
2022/06/26 07:36:54;;;;;;;2.40;1.77;;;23.10;97.20;;;;;;1727069;28;20576;-68
2022/06/26 07:37:47;;;;;;;2.13;1.70;;;23.10;97.20;;;;;;1727547;28;20275;-69
2022/06/26 07:38:38;;;;;;;1.95;1.75;;;23.10;97.20;;;;;;1727847;28;20212;-69
2022/06/26 07:39:30;;;;;;;1.83;1.60;;;23.10;97.20;;;;;;1727883;28;20203;-69
2022/06/26 07:40:20;;;;;;;2.15;2.05;;;23.10;97.20;;;;;;1727826;28;20770;-68
2022/06/26 07:41:12;;;;;;;1.80;1.70;;;23.10;97.20;;;;;;1727890;28;20280;-68
2022/06/26 07:42:05;;;;;;;2.45;2.15;;;23.10;97.20;;;;;;1727826;28;20656;-69
2022/06/26 07:42:56;;;;;;;2.15;1.95;;;23.10;97.20;;;;;;1727937;28;20571;-69
2022/06/26 07:43:48;;;;;;;1.70;1.60;;;23.20;97.20;;;;;;1727824;28;20291;-69
2022/06/26 07:44:38;;;;;;;2.13;2.00;;;23.20;97.20;;;;;;1727940;28;20211;-70
2022/06/26 07:45:30;;;;;;;2.17;1.97;;;23.20;97.20;;;;;;1727822;28;20232;-69
2022/06/26 07:46:21;;;;;;;3.28;2.78;;;23.20;97.20;;;;;;1727823;28;20200;-69
2022/06/26 07:47:13;;;;;;;2.67;2.47;;;23.30;97.20;;;;;;1727657;28;20300;-69
2022/06/26 07:48:04;;;;;;;5.10;3.47;;;23.30;97.20;;;;;;1727721;28;20443;-69
2022/06/26 07:48:56;;;;;;;4.97;4.35;;;23.30;97.20;;;;;;1727852;28;20196;-69
2022/06/26 07:49:47;;;;;;;8.32;6.28;;;23.30;97.20;;;;;;1727824;28;20568;-69
2022/06/26 07:50:41;;;;;;;16.43;4.97;;;23.40;97.20;;;;;;1727695;28;20252;-69
2022/06/26 07:51:33;;;;;;;5.63;5.13;;;23.40;97.20;;;;;;1727839;28;20204;-69
2022/06/26 07:52:25;;;;;;;3.38;3.08;;;23.40;97.20;;;;;;1727776;28;20660;-69
2022/06/26 07:53:16;;;;;;;2.03;1.92;;;23.50;97.20;;;;;;1727498;28;20203;-69
2022/06/26 07:54:09;;;;;;;3.05;2.40;;;23.50;97.20;;;;;;1727554;28;20308;-69
2022/06/26 07:54:59;;;;;;;6.10;4.85;;;23.50;97.20;;;;;;1727721;28;20203;-71
2022/06/26 07:55:52;;;;;;;6.23;4.83;;;23.50;97.20;;;;;;1727806;28;20220;-69
2022/06/26 07:56:44;;;;;;;8.32;7.53;;;23.50;97.20;;;;;;1727548;28;20213;-68
2022/06/26 07:57:35;;;;;;;6.00;5.40;;;23.50;97.20;;;;;;1727541;28;20208;-69
2022/06/26 07:58:26;;;;;;;6.30;5.40;;;23.50;97.20;;;;;;1727614;28;20751;-68
2022/06/26 07:59:17;;;;;;;5.07;4.68;;;23.50;97.20;;;;;;1727795;28;20200;-69
2022/06/26 08:00:13;;;;;;;6.43;5.90;;;23.60;97.20;;;;;;1727747;28;20803;-69
2022/06/26 08:01:04;;;;;;;5.00;4.50;;;23.60;97.20;;;;;;1727984;28;20224;-70
2022/06/26 08:01:56;;;;;;;4.17;3.67;;;23.60;97.20;;;;;;1728194;28;20276;-69
2022/06/26 08:02:47;;;;;;;3.92;3.55;;;23.70;97.20;;;;;;1727821;28;20335;-69
2022/06/26 08:03:39;;;;;;;4.00;3.70;;;23.70;97.20;;;;;;1727767;28;20336;-69
2022/06/26 08:04:29;;;;;;;2.75;2.55;;;23.70;97.20;;;;;;1727720;28;20209;-69
2022/06/26 08:05:21;;;;;;;2.73;2.53;;;23.80;97.20;;;;;;1727784;28;20279;-69
2022/06/26 08:06:13;;;;;;;2.40;2.20;;;23.80;97.20;;;;;;1727713;28;20204;-69
2022/06/26 08:07:05;;;;;;;3.45;1.98;;;23.80;97.20;;;;;;1727412;28;20232;-69
2022/06/26 08:07:56;;;;;;;2.47;2.28;;;23.90;97.20;;;;;;1727685;28;20208;-69
2022/06/26 08:08:48;;;;;;;2.80;2.07;;;23.90;97.20;;;;;;1727669;28;20239;-69
2022/06/26 08:09:38;;;;;;;2.65;2.22;;;23.90;97.20;;;;;;1727698;28;20212;-69
2022/06/26 08:10:30;;;;;;;2.03;1.90;;;24.00;97.20;;;;;;1727245;28;20761;-69
2022/06/26 08:11:21;;;;;;;2.95;2.55;;;24.00;97.20;;;;;;1727714;28;20663;-69
2022/06/26 08:12:13;;;;;;;2.13;1.70;;;24.00;97.20;;;;;;1727732;28;20614;-69
2022/06/26 08:13:04;;;;;;;2.15;2.05;;;24.10;97.20;;;;;;1727700;28;20201;-69
2022/06/26 08:13:55;;;;;;;1.92;1.83;;;24.10;97.20;;;;;;1727651;28;20200;-69
2022/06/26 08:14:46;;;;;;;2.33;2.22;;;24.10;97.20;;;;;;1727667;28;20213;-69
2022/06/26 08:15:38;;;;;;;2.10;1.90;;;24.10;97.20;;;;;;1727699;28;20296;-69
2022/06/26 08:16:29;;;;;;;2.10;1.77;;;24.20;97.20;;;;;;1727622;28;20574;-69
2022/06/26 08:17:20;;;;;;;2.00;1.90;;;24.20;97.20;;;;;;1727328;28;20294;-69
2022/06/26 08:18:11;;;;;;;1.90;1.80;;;24.20;97.20;;;;;;1727592;28;20220;-69
2022/06/26 08:19:03;;;;;;;1.93;1.83;;;24.20;97.20;;;;;;1727739;28;20648;-69
2022/06/26 08:19:54;;;;;;;2.35;2.15;;;24.20;97.20;;;;;;1727679;28;21000;-69
2022/06/26 08:20:46;;;;;;;2.07;1.87;;;24.30;97.20;;;;;;1727301;28;20644;-69
2022/06/26 08:22:47;;;;;;;1.88;1.77;;;24.30;97.20;;;;;;1727775;28;20212;-69
2022/06/26 08:23:39;;;;;;;1.80;1.70;;;24.40;97.20;;;;;;1727655;28;20247;-69
2022/06/26 08:24:31;;;;;;;2.08;1.98;;;24.40;97.20;;;;;;1727582;28;20209;-69
2022/06/26 08:25:22;;;;;;;2.30;2.10;;;24.40;97.20;;;;;;1727602;28;20207;-69
2022/06/26 08:26:13;;;;;;;2.95;1.90;;;24.50;97.20;;;;;;1727508;28;20200;-69
2022/06/26 08:27:05;;;;;;;2.77;1.97;;;24.50;97.20;;;;;;1727205;28;20200;-69
2022/06/26 08:27:56;;;;;;;2.00;1.90;;;24.50;97.20;;;;;;1727203;28;20200;-69
2022/06/26 08:28:48;;;;;;;2.00;1.90;;;24.50;97.20;;;;;;1727627;28;20231;-68
2022/06/26 08:29:38;;;;;;;2.17;1.98;;;24.50;97.20;;;;;;1727604;28;20257;-69
2022/06/26 08:30:30;;;;;;;2.03;1.90;;;24.60;97.20;;;;;;1727500;28;20290;-68
2022/06/26 08:31:21;;;;;;;1.85;1.70;;;24.60;97.20;;;;;;1727602;28;20208;-70
2022/06/26 08:32:13;;;;;;;2.57;1.90;;;24.60;97.20;;;;;;1727673;28;20283;-69
2022/06/26 08:33:04;;;;;;;2.25;2.08;;;24.60;97.20;;;;;;1727628;28;20201;-69
2022/06/26 08:33:55;;;;;;;1.93;1.73;;;24.70;97.20;;;;;;1727566;28;20228;-69
2022/06/26 08:34:46;;;;;;;6.43;2.10;;;24.70;97.20;;;;;;1727595;28;20443;-69
2022/06/26 08:35:38;;;;;;;2.53;2.10;;;24.70;97.20;;;;;;1727580;28;20197;-69
2022/06/26 08:36:29;;;;;;;2.20;2.00;;;24.70;97.20;;;;;;1727443;28;20211;-69
2022/06/26 08:37:22;;;;;;;2.10;2.00;;;24.80;97.20;;;;;;1727289;28;20727;-68
2022/06/26 08:38:13;;;;;;;1.98;1.88;;;24.80;97.20;;;;;;1727369;28;20439;-68
2022/06/26 08:39:04;;;;;;;2.10;2.00;;;24.80;97.20;;;;;;1727527;28;20216;-69
2022/06/26 08:39:55;;;;;;;1.95;1.60;;;24.80;97.20;;;;;;1727575;28;20204;-69
2022/06/26 08:40:47;;;;;;;1.70;1.60;;;24.80;97.20;;;;;;1726120;28;20229;-69
2022/06/26 08:41:41;;;;;;;2.70;1.67;;;24.80;97.20;;;;;;1720648;28;20216;-69
2022/06/26 08:42:33;;;;;;;2.20;2.00;;;24.90;97.20;;;;;;1725171;28;20284;-69
2022/06/26 08:43:24;;;;;;;2.20;2.00;;;24.90;97.20;;;;;;1727523;28;20212;-69
2022/06/26 08:44:16;;;;;;;1.75;1.60;;;24.90;97.20;;;;;;1723680;28;20985;-69
2022/06/26 08:45:09;;;;;;;2.40;2.20;;;25.00;97.20;;;;;;1726275;28;20219;-69
2022/06/26 08:46:04;;;;;;;1.80;1.70;;;25.00;97.20;;;;;;1726672;28;20730;-68
2022/06/26 08:46:57;;;;;;;1.85;1.70;;;25.00;97.20;;;;;;1726870;28;20200;-68
2022/06/26 08:47:50;;;;;;;1.70;1.60;;;25.00;97.20;;;;;;1727110;28;20206;-69
2022/06/26 08:48:43;;;;;;;2.08;1.92;;;25.00;97.20;;;;;;1727243;28;20247;-69
2022/06/26 08:49:36;;;;;;;2.53;2.30;;;25.00;97.20;;;;;;1726887;28;20218;-69
2022/06/26 08:50:28;;;;;;;1.85;1.75;;;25.00;97.20;;;;;;1727052;28;20211;-69
2022/06/26 08:51:21;;;;;;;1.75;1.65;;;25.00;97.20;;;;;;1727297;28;20204;-69
2022/06/26 08:52:13;;;;;;;2.17;1.65;;;25.00;97.20;;;;;;1727227;28;20574;-69
2022/06/26 08:53:07;;;;;;;2.05;1.73;;;25.10;97.20;;;;;;1727263;28;20822;-69
2022/06/26 08:53:58;;;;;;;2.30;1.70;;;25.10;97.20;;;;;;1727267;28;20212;-69
2022/06/26 08:54:50;;;;;;;3.00;1.55;;;25.10;97.20;;;;;;1727309;28;20266;-69
2022/06/26 08:55:41;;;;;;;1.73;1.63;;;25.10;97.20;;;;;;1727305;28;20204;-69
2022/06/26 08:56:34;;;;;;;1.88;1.70;;;25.20;97.20;;;;;;1726944;28;20599;-69
2022/06/26 08:57:25;;;;;;;2.15;1.98;;;25.20;97.20;;;;;;1727096;28;20235;-69
2022/06/26 08:58:17;;;;;;;1.70;1.60;;;25.20;97.20;;;;;;1727202;28;20197;-68
2022/06/26 08:59:08;;;;;;;3.80;2.17;;;25.20;97.20;;;;;;1726868;28;20200;-69
2022/06/26 09:00:00;;;;;;;2.20;1.43;;;25.20;97.20;;;;;;1727340;28;20211;-69
2022/06/26 09:00:51;;;;;;;2.05;1.90;;;25.30;97.20;;;;;;1727000;28;20475;-69
2022/06/26 09:01:44;;;;;;;2.23;1.80;;;25.30;97.20;;;;;;1727249;28;20283;-69
2022/06/26 09:02:34;;;;;;;1.75;1.65;;;25.30;97.20;;;;;;1727252;28;20583;-68
2022/06/26 09:03:26;;;;;;;1.50;1.40;;;25.30;97.20;;;;;;1727185;28;20279;-67
2022/06/26 09:04:17;;;;;;;1.90;1.80;;;25.40;97.20;;;;;;1727223;28;20211;-68
2022/06/26 09:05:10;;;;;;;1.90;1.70;;;25.40;97.20;;;;;;1727077;28;20287;-68
2022/06/26 09:06:01;;;;;;;1.60;1.50;;;25.40;97.20;;;;;;1727146;28;20989;-68
2022/06/26 09:06:53;;;;;;;2.00;1.90;;;25.40;97.20;;;;;;1727004;28;20891;-68
2022/06/26 09:07:45;;;;;;;1.98;1.77;;;25.40;97.20;;;;;;1727148;28;20450;-68
2022/06/26 09:08:45;;;;;;;1.75;1.65;;;25.50;97.20;;;;;;1727019;28;20203;-68
2022/06/26 09:09:38;;;;;;;1.65;1.55;;;25.50;97.20;;;;;;1727272;28;20232;-68
2022/06/26 09:10:37;;;;;;;1.60;1.50;;;25.50;97.20;;;;;;1727098;28;20292;-68
2022/06/26 09:11:37;;;;;;;2.50;1.85;;;25.50;97.20;;;;;;1727170;28;20295;-68
2022/06/26 09:12:36;;;;;;;1.60;1.50;;;25.50;97.20;;;;;;1727234;28;20211;-69
2022/06/26 09:13:37;;;;;;;2.63;2.00;;;25.50;97.20;;;;;;1726979;28;20204;-68
2022/06/26 09:14:30;;;;;;;1.65;1.55;;;25.50;97.20;;;;;;1726721;28;20247;-68
2022/06/26 09:15:23;;;;;;;1.63;1.50;;;25.60;97.20;;;;;;1726654;28;20208;-68
2022/06/26 09:16:15;;;;;;;2.28;2.00;;;25.60;97.20;;;;;;1726729;28;20283;-68
2022/06/26 09:17:06;;;;;;;2.22;1.80;;;25.60;97.20;;;;;;1726555;28;20216;-68
2022/06/26 09:17:59;;;;;;;1.70;1.60;;;25.60;97.20;;;;;;1726568;28;20723;-69
2022/06/26 09:18:50;;;;;;;1.50;1.40;;;25.60;97.20;;;;;;1726474;28;20509;-68
2022/06/26 09:19:43;;;;;;;2.10;1.50;;;25.70;97.20;;;;;;1727223;28;20726;-69
2022/06/26 09:20:35;;;;;;;1.77;1.60;;;25.70;97.20;;;;;;1726926;28;20730;-68
2022/06/26 09:21:27;;;;;;;1.98;1.42;;;25.70;97.20;;;;;;1726940;28;20288;-68
2022/06/26 09:22:18;;;;;;;1.52;1.40;;;25.70;97.20;;;;;;1727369;28;20200;-68
2022/06/26 09:23:11;;;;;;;2.40;1.70;;;25.70;97.20;;;;;;1727214;28;20200;-68
2022/06/26 09:24:04;;;;;;;1.92;1.58;;;25.70;97.20;;;;;;1726570;28;20196;-69
2022/06/26 09:25:00;;;;;;;1.92;1.77;;;25.70;97.20;;;;;;1727258;28;20200;-68
2022/06/26 09:25:51;;;;;;;2.03;1.85;;;25.80;97.20;;;;;;1727323;28;20232;-71
2022/06/26 09:26:43;;;;;;;1.67;1.57;;;25.80;97.20;;;;;;1727025;28;20211;-69
2022/06/26 09:27:38;;;;;;;1.63;1.50;;;25.80;97.20;;;;;;1727214;28;20232;-69
2022/06/26 09:28:31;;;;;;;1.90;1.48;;;25.80;97.20;;;;;;1727190;28;20607;-68
2022/06/26 09:29:22;;;;;;;2.95;1.80;;;25.90;97.20;;;;;;1727193;28;20208;-70
2022/06/26 09:30:14;;;;;;;1.60;1.43;;;25.90;97.20;;;;;;1727154;28;20220;-70
2022/06/26 09:31:05;;;;;;;2.47;1.90;;;25.90;97.20;;;;;;1727211;28;20210;-69
2022/06/26 09:31:56;;;;;;;3.22;2.13;;;25.90;97.20;;;;;;1727265;28;20331;-69